Butterfly — V7DW2 — position and weather

sailwx.info

Track history (hours):
 
Tides and Currents Weather Stations Pressure Air Temp Water Temp Dewpoint Dewpoint Depression Visibility Wind Speed Wind Dir Waves Ship Positions

Butterfly

Last reported at 2017-Dec-14 16:26 UTC. Time now 2017-Dec-17 10:14 UTC.
Position N 33°58' W 118°28'.

Length 38 m; draft 1.5 m.

Type: High speed craft. MMSI: 538070979.

Date/timePositionNaut miles runAvg speedWind from/ knotsBaromVisibWave heightAir tempDewpointWater temp
2017-Dec-14 16:26N 33°58' W 118°28'0 0.6
2017-Dec-14 15:52N 33°58' W 118°28'17 1.5
2017-Dec-14 04:56N 33°58' W 118°48'1023.2
2017-Dec-14 04:30N 33°58' W 119°00'1223.0
2017-Dec-14 04:00N 34°01' W 119°14'1428.4
2017-Dec-14 03:30N 34°06' W 119°30'1428.1
2017-Dec-14 03:00N 34°09' W 119°47'1428.1
2017-Dec-14 02:30N 34°13' W 120°03'1427.9
2017-Dec-14 02:00N 34°17' W 120°19'1326.5
2017-Dec-14 01:30N 34°20' W 120°34'1324.8
2017-Dec-14 01:00N 34°24' W 120°49'1121.6
2017-Dec-14 00:31N 34°33' W 120°56'1224.9
2017-Dec-14 00:00N 34°45' W 120°56'1325.5
2017-Dec-13 23:30N 34°58' W 120°56'1326.1
2017-Dec-13 23:00N 35°11' W 120°56'42 1.5
2017-Dec-12 19:08N 35°44' W 121°27'326.0
2017-Dec-12 19:01N 35°47' W 121°30'1325.3
2017-Dec-12 18:30N 35°56' W 121°40'1223.9
2017-Dec-12 18:00N 36°06' W 121°49'1224.7
2017-Dec-12 17:30N 36°15' W 121°59'1224.6
2017-Dec-12 17:00N 36°27' W 122°01'1218.1
2017-Dec-12 16:22N 36°38' W 121°54'1 3.8
2017-Dec-12 16:00N 36°37' W 121°54'0 0.0
2017-Dec-12 15:30N 36°37' W 121°54'0 0.0
2017-Dec-12 15:00N 36°37' W 121°54'0 0.0
2017-Dec-12 14:30N 36°37' W 121°54'0 0.0
2017-Dec-12 14:00N 36°37' W 121°54'0 0.0
2017-Dec-12 13:30N 36°37' W 121°54'0 0.0
2017-Dec-12 13:00N 36°37' W 121°54'0 0.0
2017-Dec-12 12:30N 36°37' W 121°54'0 0.0
2017-Dec-12 12:00N 36°37' W 121°54'0 0.0
2017-Dec-12 11:30N 36°37' W 121°54'0 0.0
2017-Dec-12 11:00N 36°37' W 121°54'0 0.0
2017-Dec-12 10:30N 36°37' W 121°54'0 0.0
2017-Dec-12 10:00N 36°37' W 121°54'0 0.0
2017-Dec-12 09:30N 36°37' W 121°54'0 0.0
2017-Dec-12 09:00N 36°37' W 121°54'0 0.0
2017-Dec-12 08:30N 36°37' W 121°54'0 0.0
2017-Dec-12 08:00N 36°37' W 121°54'0 0.0
2017-Dec-12 07:30N 36°37' W 121°54'0 0.0
2017-Dec-12 07:00N 36°37' W 121°54'0 0.0
2017-Dec-12 06:30N 36°37' W 121°54'0 0.0
2017-Dec-12 06:00N 36°37' W 121°54'0 0.0
2017-Dec-12 05:30N 36°37' W 121°54'0 0.0
2017-Dec-12 05:00N 36°37' W 121°54'0 0.0
2017-Dec-12 04:30N 36°37' W 121°54'0 0.0
2017-Dec-12 04:00N 36°37' W 121°54'0 0.0
2017-Dec-12 03:30N 36°37' W 121°54'0 0.0
2017-Dec-12 03:00N 36°37' W 121°54'0 0.0
2017-Dec-12 02:30N 36°37' W 121°54'0 0.0
2017-Dec-12 02:00N 36°37' W 121°54'0 0.0
2017-Dec-12 01:30N 36°37' W 121°54'0 0.0
2017-Dec-12 01:00N 36°37' W 121°54'0 0.0
2017-Dec-12 00:30N 36°37' W 121°54'0 0.0
2017-Dec-12 00:00N 36°37' W 121°54'0 0.0
2017-Dec-11 23:30N 36°37' W 121°54'0 0.0
2017-Dec-11 23:00N 36°37' W 121°54'0 0.0
2017-Dec-11 22:30N 36°37' W 121°54'0 0.0
2017-Dec-11 22:00N 36°37' W 121°54'0 0.0
2017-Dec-11 21:30N 36°37' W 121°54'0 0.0
2017-Dec-11 21:00N 36°37' W 121°54'2 3.6
2017-Dec-11 20:30N 36°38' W 121°54'1020.3
2017-Dec-11 20:00N 36°46' W 122°02'1122.5
2017-Dec-11 19:30N 36°54' W 122°12'1326.2
2017-Dec-11 19:00N 37°03' W 122°24'1326.3
2017-Dec-11 18:31N 37°12' W 122°36'1223.9
2017-Dec-11 18:00N 37°22' W 122°44'1224.1
2017-Dec-11 17:30N 37°34' W 122°44'1122.3
2017-Dec-11 16:59N 37°45' W 122°39'1224.7
2017-Dec-11 16:31N 37°49' W 122°25'1224.6
2017-Dec-11 16:01N 37°38' W 122°18'816.2
2017-Dec-11 15:30N 37°31' W 122°12'1 1.5
2017-Dec-11 15:00N 37°31' W 122°12'0 0.0
2017-Dec-11 14:30N 37°31' W 122°12'0 0.0
2017-Dec-11 14:00N 37°31' W 122°12'0 0.0
2017-Dec-11 13:29N 37°31' W 122°12'0 0.0
2017-Dec-11 13:00N 37°31' W 122°12'0 0.0
2017-Dec-11 12:30N 37°31' W 122°12'0 0.0
2017-Dec-11 12:00N 37°31' W 122°12'0 0.0
2017-Dec-11 11:30N 37°31' W 122°12'0 0.0
2017-Dec-11 11:01N 37°31' W 122°12'0 0.0
2017-Dec-11 10:30N 37°31' W 122°12'0 0.0
2017-Dec-11 10:00N 37°31' W 122°12'0 0.0
2017-Dec-11 09:30N 37°31' W 122°12'0 0.0
2017-Dec-11 09:00N 37°31' W 122°12'0 0.0
2017-Dec-11 08:28N 37°31' W 122°12'0 0.0
2017-Dec-11 08:00N 37°31' W 122°12'0 0.0
2017-Dec-11 07:29N 37°31' W 122°12'0 0.0
2017-Dec-11 07:00N 37°31' W 122°12'0 0.0
2017-Dec-11 06:30N 37°31' W 122°12'0 0.0
2017-Dec-11 06:00N 37°31' W 122°12'0 0.0
2017-Dec-11 05:30N 37°31' W 122°12'0 0.0
2017-Dec-11 05:00N 37°31' W 122°12'0 0.0
2017-Dec-11 04:30N 37°31' W 122°12'0 0.0
2017-Dec-11 04:00N 37°31' W 122°12'0 0.0
2017-Dec-11 03:30N 37°31' W 122°12'0 0.0
2017-Dec-11 03:00N 37°31' W 122°12'0 0.0
2017-Dec-11 02:28N 37°31' W 122°12'0 0.0
2017-Dec-11 01:58N 37°31' W 122°12'0 0.0
2017-Dec-11 00:46N 37°31' W 122°12'0 0.0
2017-Dec-11 00:28N 37°31' W 122°12'0 0.0
2017-Dec-10 23:52N 37°31' W 122°12'0 0.0
2017-Dec-10 23:22N 37°31' W 122°12'0 0.0
2017-Dec-10 22:58N 37°31' W 122°12'0 0.0
2017-Dec-10 22:22N 37°31' W 122°12'0 0.0
2017-Dec-10 18:28N 37°31' W 122°12'0 0.0
2017-Dec-10 17:58N 37°31' W 122°12'0 0.0
2017-Dec-10 17:16N 37°31' W 122°12'0 0.0
2017-Dec-10 16:58N 37°31' W 122°12'0 0.0
2017-Dec-10 16:28N 37°31' W 122°12'0 0.0
2017-Dec-10 15:28N 37°31' W 122°12'0 0.0
2017-Dec-10 14:58N 37°31' W 122°12'0 0.0
2017-Dec-10 14:22N 37°31' W 122°12'0 0.0
2017-Dec-10 13:58N 37°31' W 122°12'0 0.0
2017-Dec-10 13:28N 37°31' W 122°12'0 0.0
2017-Dec-10 12:58N 37°31' W 122°12'0 0.0
2017-Dec-10 12:22N 37°31' W 122°12'0 0.0
2017-Dec-10 11:58N 37°31' W 122°12'0 0.0
2017-Dec-10 11:16N 37°31' W 122°12'0 0.0
2017-Dec-10 10:58N 37°31' W 122°12'0 0.0
2017-Dec-10 10:28N 37°31' W 122°12'0 0.0
2017-Dec-10 09:16N 37°31' W 122°12'0 0.0
2017-Dec-10 08:52N 37°31' W 122°12'0 0.0
2017-Dec-10 08:22N 37°31' W 122°12'0 0.0
2017-Dec-10 07:58N 37°31' W 122°12'0 0.0
2017-Dec-10 06:16N 37°31' W 122°12'0 0.0
2017-Dec-10 05:52N 37°31' W 122°12'0 0.0
2017-Dec-10 05:22N 37°31' W 122°12'0 0.0
2017-Dec-10 04:52N 37°31' W 122°12'0 0.0
2017-Dec-10 04:22N 37°31' W 122°12'0 0.0
2017-Dec-10 03:58N 37°31' W 122°12'0 0.0
2017-Dec-10 03:28N 37°31' W 122°12'0 0.0
2017-Dec-10 02:58N 37°31' W 122°12'0 0.0
2017-Dec-10 02:22N 37°31' W 122°12'0 0.0
2017-Dec-09 23:19N 37°31' W 122°12'0 0.1
2017-Dec-09 22:49N 37°31' W 122°12'0 0.0
2017-Dec-09 18:58N 37°31' W 122°12'0 0.0
2017-Dec-09 17:58N 37°31' W 122°12'0 0.0
2017-Dec-09 17:16N 37°31' W 122°12'0 0.0
2017-Dec-09 16:46N 37°31' W 122°12'0 0.0
2017-Dec-09 16:28N 37°31' W 122°12'0 0.0
2017-Dec-09 15:49N 37°31' W 122°12'0 0.0
2017-Dec-09 14:22N 37°31' W 122°12'0 0.0
2017-Dec-09 13:55N 37°31' W 122°12'0 0.0
2017-Dec-09 13:25N 37°31' W 122°12'0 0.1
2017-Dec-09 12:58N 37°31' W 122°12'0 0.0
2017-Dec-09 12:28N 37°31' W 122°12'0 0.1
2017-Dec-09 11:58N 37°31' W 122°12'0 0.0
2017-Dec-09 11:19N 37°31' W 122°12'0 0.1
2017-Dec-09 10:55N 37°31' W 122°12'0 0.1
2017-Dec-09 10:25N 37°31' W 122°12'0 0.0
2017-Dec-09 09:55N 37°31' W 122°12'0 0.1
2017-Dec-09 09:22N 37°31' W 122°12'0 0.1
2017-Dec-09 08:49N 37°31' W 122°12'0 0.0
2017-Dec-09 08:19N 37°31' W 122°12'0 0.0
2017-Dec-09 07:58N 37°31' W 122°12'0 0.1
2017-Dec-09 07:19N 37°31' W 122°12'0 0.1
2017-Dec-09 06:49N 37°31' W 122°12'0 0.0
2017-Dec-09 06:22N 37°31' W 122°12'0 0.0
2017-Dec-09 05:58N 37°31' W 122°12'0 0.0
2017-Dec-09 04:01N 37°31' W 122°12'0 0.5
2017-Dec-09 03:55N 37°31' W 122°12'0 0.1
2017-Dec-09 03:13N 37°31' W 122°12'0 0.0
2017-Dec-09 02:52N 37°31' W 122°12'0 0.0
2017-Dec-09 02:13N 37°31' W 122°12'0 0.0
2017-Dec-09 01:49N 37°31' W 122°12'0 0.0
2017-Dec-09 01:22N 37°31' W 122°12'0 0.1
2017-Dec-09 00:55N 37°31' W 122°12'0 0.1
2017-Dec-09 00:25N 37°31' W 122°12'0 0.0
2017-Dec-08 23:52N 37°31' W 122°12'0 0.0
2017-Dec-08 23:28N 37°31' W 122°12'0 0.0
2017-Dec-08 22:58N 37°31' W 122°12'0 0.0
2017-Dec-08 22:28N 37°31' W 122°12'0 0.0
2017-Dec-08 21:55N 37°31' W 122°12'0 0.0
2017-Dec-08 21:28N 37°31' W 122°12'0 0.0
2017-Dec-08 20:58N 37°31' W 122°12'0 0.1
2017-Dec-08 20:25N 37°31' W 122°12'0 0.0
2017-Dec-08 19:58N 37°31' W 122°12'0 0.1
2017-Dec-08 19:19N 37°31' W 122°12'0 0.0
2017-Dec-08 18:55N 37°31' W 122°12'0 0.0
2017-Dec-08 18:19N 37°31' W 122°12'0 0.0
2017-Dec-08 17:55N 37°31' W 122°12'0 0.1
2017-Dec-08 17:28N 37°31' W 122°12'0 0.1
2017-Dec-08 16:49N 37°31' W 122°12'0 0.0
2017-Dec-08 16:25N 37°31' W 122°12'0 0.0
2017-Dec-08 15:43N 37°31' W 122°12'0 0.0
2017-Dec-08 15:25N 37°31' W 122°12'0 0.1
2017-Dec-08 14:52N 37°31' W 122°12'0 0.0
2017-Dec-08 14:25N 37°31' W 122°12'0 0.1
2017-Dec-08 13:55N 37°31' W 122°12'0 0.0
2017-Dec-08 13:25N 37°31' W 122°12'0 0.1
2017-Dec-08 12:55N 37°31' W 122°12'0 0.0
2017-Dec-08 12:25N 37°31' W 122°12'0 0.1
2017-Dec-08 11:43N 37°31' W 122°12'0 0.1
2017-Dec-08 11:13N 37°31' W 122°12'0 0.1
2017-Dec-08 10:49N 37°31' W 122°12'0 0.0
2017-Dec-08 10:25N 37°31' W 122°12'0 0.0
2017-Dec-08 09:52N 37°31' W 122°12'0 0.1
2017-Dec-08 09:25N 37°31' W 122°12'0 0.1
2017-Dec-08 08:52N 37°31' W 122°12'0 0.1
2017-Dec-08 08:07N 37°31' W 122°12'0 0.0
2017-Dec-08 07:55N 37°31' W 122°12'0 0.1
2017-Dec-08 07:28N 37°31' W 122°12'0 0.0
2017-Dec-08 06:49N 37°31' W 122°12'0 0.0
2017-Dec-08 06:28N 37°31' W 122°12'0 0.0
2017-Dec-08 04:19N 37°31' W 122°12'0 0.0
2017-Dec-08 03:37N 37°31' W 122°12'0 0.0
2017-Dec-08 03:01N 37°31' W 122°12'0 0.0
2017-Dec-08 02:37N 37°31' W 122°12'0 0.0
2017-Dec-08 02:25N 37°31' W 122°12'0 0.0
2017-Dec-08 01:37N 37°31' W 122°12'0 0.0
2017-Dec-08 01:19N 37°31' W 122°12'0 0.1
2017-Dec-08 00:55N 37°31' W 122°12'0 0.1
2017-Dec-08 00:25N 37°31' W 122°12'  
Track history (hours):
 
Tides and Currents Weather Stations Pressure Air Temp Water Temp Dewpoint Dewpoint Depression Visibility Wind Speed Wind Dir Waves Ship Positions

Butterfly

Last reported at 2017-Dec-14 16:26 UTC. Time now 2017-Dec-17 10:14 UTC.
Position N 33°58' W 118°28'.

Length 38 m; draft 1.5 m.

Type: High speed craft. MMSI: 538070979.

Date/timePositionNaut miles runAvg speedWind from/ knotsBaromVisibWave heightAir tempDewpointWater temp
2017-Dec-14 16:26N 33°58' W 118°28'0 0.6
2017-Dec-14 15:52N 33°58' W 118°28'17 1.5
2017-Dec-14 04:56N 33°58' W 118°48'1023.2
2017-Dec-14 04:30N 33°58' W 119°00'1223.0
2017-Dec-14 04:00N 34°01' W 119°14'1428.4
2017-Dec-14 03:30N 34°06' W 119°30'1428.1
2017-Dec-14 03:00N 34°09' W 119°47'1428.1
2017-Dec-14 02:30N 34°13' W 120°03'1427.9
2017-Dec-14 02:00N 34°17' W 120°19'1326.5
2017-Dec-14 01:30N 34°20' W 120°34'1324.8
2017-Dec-14 01:00N 34°24' W 120°49'1121.6
2017-Dec-14 00:31N 34°33' W 120°56'1224.9
2017-Dec-14 00:00N 34°45' W 120°56'1325.5
2017-Dec-13 23:30N 34°58' W 120°56'1326.1
2017-Dec-13 23:00N 35°11' W 120°56'42 1.5
2017-Dec-12 19:08N 35°44' W 121°27'326.0
2017-Dec-12 19:01N 35°47' W 121°30'1325.3
2017-Dec-12 18:30N 35°56' W 121°40'1223.9
2017-Dec-12 18:00N 36°06' W 121°49'1224.7
2017-Dec-12 17:30N 36°15' W 121°59'1224.6
2017-Dec-12 17:00N 36°27' W 122°01'1218.1
2017-Dec-12 16:22N 36°38' W 121°54'1 3.8
2017-Dec-12 16:00N 36°37' W 121°54'0 0.0
2017-Dec-12 15:30N 36°37' W 121°54'0 0.0
2017-Dec-12 15:00N 36°37' W 121°54'0 0.0
2017-Dec-12 14:30N 36°37' W 121°54'0 0.0
2017-Dec-12 14:00N 36°37' W 121°54'0 0.0
2017-Dec-12 13:30N 36°37' W 121°54'0 0.0
2017-Dec-12 13:00N 36°37' W 121°54'0 0.0
2017-Dec-12 12:30N 36°37' W 121°54'0 0.0
2017-Dec-12 12:00N 36°37' W 121°54'0 0.0
2017-Dec-12 11:30N 36°37' W 121°54'0 0.0
2017-Dec-12 11:00N 36°37' W 121°54'0 0.0
2017-Dec-12 10:30N 36°37' W 121°54'0 0.0
2017-Dec-12 10:00N 36°37' W 121°54'0 0.0
2017-Dec-12 09:30N 36°37' W 121°54'0 0.0
2017-Dec-12 09:00N 36°37' W 121°54'0 0.0
2017-Dec-12 08:30N 36°37' W 121°54'0 0.0
2017-Dec-12 08:00N 36°37' W 121°54'0 0.0
2017-Dec-12 07:30N 36°37' W 121°54'0 0.0
2017-Dec-12 07:00N 36°37' W 121°54'0 0.0
2017-Dec-12 06:30N 36°37' W 121°54'0 0.0
2017-Dec-12 06:00N 36°37' W 121°54'0 0.0
2017-Dec-12 05:30N 36°37' W 121°54'0 0.0
2017-Dec-12 05:00N 36°37' W 121°54'0 0.0
2017-Dec-12 04:30N 36°37' W 121°54'0 0.0
2017-Dec-12 04:00N 36°37' W 121°54'0 0.0
2017-Dec-12 03:30N 36°37' W 121°54'0 0.0
2017-Dec-12 03:00N 36°37' W 121°54'0 0.0
2017-Dec-12 02:30N 36°37' W 121°54'0 0.0
2017-Dec-12 02:00N 36°37' W 121°54'0 0.0
2017-Dec-12 01:30N 36°37' W 121°54'0 0.0
2017-Dec-12 01:00N 36°37' W 121°54'0 0.0
2017-Dec-12 00:30N 36°37' W 121°54'0 0.0
2017-Dec-12 00:00N 36°37' W 121°54'0 0.0
2017-Dec-11 23:30N 36°37' W 121°54'0 0.0
2017-Dec-11 23:00N 36°37' W 121°54'0 0.0
2017-Dec-11 22:30N 36°37' W 121°54'0 0.0
2017-Dec-11 22:00N 36°37' W 121°54'0 0.0
2017-Dec-11 21:30N 36°37' W 121°54'0 0.0
2017-Dec-11 21:00N 36°37' W 121°54'2 3.6
2017-Dec-11 20:30N 36°38' W 121°54'1020.3
2017-Dec-11 20:00N 36°46' W 122°02'1122.5
2017-Dec-11 19:30N 36°54' W 122°12'1326.2
2017-Dec-11 19:00N 37°03' W 122°24'1326.3
2017-Dec-11 18:31N 37°12' W 122°36'1223.9
2017-Dec-11 18:00N 37°22' W 122°44'1224.1
2017-Dec-11 17:30N 37°34' W 122°44'1122.3
2017-Dec-11 16:59N 37°45' W 122°39'1224.7
2017-Dec-11 16:31N 37°49' W 122°25'1224.6
2017-Dec-11 16:01N 37°38' W 122°18'816.2
2017-Dec-11 15:30N 37°31' W 122°12'1 1.5
2017-Dec-11 15:00N 37°31' W 122°12'0 0.0
2017-Dec-11 14:30N 37°31' W 122°12'0 0.0
2017-Dec-11 14:00N 37°31' W 122°12'0 0.0
2017-Dec-11 13:29N 37°31' W 122°12'0 0.0
2017-Dec-11 13:00N 37°31' W 122°12'0 0.0
2017-Dec-11 12:30N 37°31' W 122°12'0 0.0
2017-Dec-11 12:00N 37°31' W 122°12'0 0.0
2017-Dec-11 11:30N 37°31' W 122°12'0 0.0
2017-Dec-11 11:01N 37°31' W 122°12'0 0.0
2017-Dec-11 10:30N 37°31' W 122°12'0 0.0
2017-Dec-11 10:00N 37°31' W 122°12'0 0.0
2017-Dec-11 09:30N 37°31' W 122°12'0 0.0
2017-Dec-11 09:00N 37°31' W 122°12'0 0.0
2017-Dec-11 08:28N 37°31' W 122°12'0 0.0
2017-Dec-11 08:00N 37°31' W 122°12'0 0.0
2017-Dec-11 07:29N 37°31' W 122°12'0 0.0
2017-Dec-11 07:00N 37°31' W 122°12'0 0.0
2017-Dec-11 06:30N 37°31' W 122°12'0 0.0
2017-Dec-11 06:00N 37°31' W 122°12'0 0.0
2017-Dec-11 05:30N 37°31' W 122°12'0 0.0
2017-Dec-11 05:00N 37°31' W 122°12'0 0.0
2017-Dec-11 04:30N 37°31' W 122°12'0 0.0
2017-Dec-11 04:00N 37°31' W 122°12'0 0.0
2017-Dec-11 03:30N 37°31' W 122°12'0 0.0
2017-Dec-11 03:00N 37°31' W 122°12'0 0.0
2017-Dec-11 02:28N 37°31' W 122°12'0 0.0
2017-Dec-11 01:58N 37°31' W 122°12'0 0.0
2017-Dec-11 00:46N 37°31' W 122°12'0 0.0
2017-Dec-11 00:28N 37°31' W 122°12'0 0.0
2017-Dec-10 23:52N 37°31' W 122°12'0 0.0
2017-Dec-10 23:22N 37°31' W 122°12'0 0.0
2017-Dec-10 22:58N 37°31' W 122°12'0 0.0
2017-Dec-10 22:22N 37°31' W 122°12'0 0.0
2017-Dec-10 18:28N 37°31' W 122°12'0 0.0
2017-Dec-10 17:58N 37°31' W 122°12'0 0.0
2017-Dec-10 17:16N 37°31' W 122°12'0 0.0
2017-Dec-10 16:58N 37°31' W 122°12'0 0.0
2017-Dec-10 16:28N 37°31' W 122°12'0 0.0
2017-Dec-10 15:28N 37°31' W 122°12'0 0.0
2017-Dec-10 14:58N 37°31' W 122°12'0 0.0
2017-Dec-10 14:22N 37°31' W 122°12'0 0.0
2017-Dec-10 13:58N 37°31' W 122°12'0 0.0
2017-Dec-10 13:28N 37°31' W 122°12'0 0.0
2017-Dec-10 12:58N 37°31' W 122°12'0 0.0
2017-Dec-10 12:22N 37°31' W 122°12'0 0.0
2017-Dec-10 11:58N 37°31' W 122°12'0 0.0
2017-Dec-10 11:16N 37°31' W 122°12'0 0.0
2017-Dec-10 10:58N 37°31' W 122°12'0 0.0
2017-Dec-10 10:28N 37°31' W 122°12'0 0.0
2017-Dec-10 09:16N 37°31' W 122°12'0 0.0
2017-Dec-10 08:52N 37°31' W 122°12'0 0.0
2017-Dec-10 08:22N 37°31' W 122°12'0 0.0
2017-Dec-10 07:58N 37°31' W 122°12'0 0.0
2017-Dec-10 06:16N 37°31' W 122°12'0 0.0
2017-Dec-10 05:52N 37°31' W 122°12'0 0.0
2017-Dec-10 05:22N 37°31' W 122°12'0 0.0
2017-Dec-10 04:52N 37°31' W 122°12'0 0.0
2017-Dec-10 04:22N 37°31' W 122°12'0 0.0
2017-Dec-10 03:58N 37°31' W 122°12'0 0.0
2017-Dec-10 03:28N 37°31' W 122°12'0 0.0
2017-Dec-10 02:58N 37°31' W 122°12'0 0.0
2017-Dec-10 02:22N 37°31' W 122°12'0 0.0
2017-Dec-09 23:19N 37°31' W 122°12'0 0.1
2017-Dec-09 22:49N 37°31' W 122°12'0 0.0
2017-Dec-09 18:58N 37°31' W 122°12'0 0.0
2017-Dec-09 17:58N 37°31' W 122°12'0 0.0
2017-Dec-09 17:16N 37°31' W 122°12'0 0.0
2017-Dec-09 16:46N 37°31' W 122°12'0 0.0
2017-Dec-09 16:28N 37°31' W 122°12'0 0.0
2017-Dec-09 15:49N 37°31' W 122°12'0 0.0
2017-Dec-09 14:22N 37°31' W 122°12'0 0.0
2017-Dec-09 13:55N 37°31' W 122°12'0 0.0
2017-Dec-09 13:25N 37°31' W 122°12'0 0.1
2017-Dec-09 12:58N 37°31' W 122°12'0 0.0
2017-Dec-09 12:28N 37°31' W 122°12'0 0.1
2017-Dec-09 11:58N 37°31' W 122°12'0 0.0
2017-Dec-09 11:19N 37°31' W 122°12'0 0.1
2017-Dec-09 10:55N 37°31' W 122°12'0 0.1
2017-Dec-09 10:25N 37°31' W 122°12'0 0.0
2017-Dec-09 09:55N 37°31' W 122°12'0 0.1
2017-Dec-09 09:22N 37°31' W 122°12'0 0.1
2017-Dec-09 08:49N 37°31' W 122°12'0 0.0
2017-Dec-09 08:19N 37°31' W 122°12'0 0.0
2017-Dec-09 07:58N 37°31' W 122°12'0 0.1
2017-Dec-09 07:19N 37°31' W 122°12'0 0.1
2017-Dec-09 06:49N 37°31' W 122°12'0 0.0
2017-Dec-09 06:22N 37°31' W 122°12'0 0.0
2017-Dec-09 05:58N 37°31' W 122°12'0 0.0
2017-Dec-09 04:01N 37°31' W 122°12'0 0.5
2017-Dec-09 03:55N 37°31' W 122°12'0 0.1
2017-Dec-09 03:13N 37°31' W 122°12'0 0.0
2017-Dec-09 02:52N 37°31' W 122°12'0 0.0
2017-Dec-09 02:13N 37°31' W 122°12'0 0.0
2017-Dec-09 01:49N 37°31' W 122°12'0 0.0
2017-Dec-09 01:22N 37°31' W 122°12'0 0.1
2017-Dec-09 00:55N 37°31' W 122°12'0 0.1
2017-Dec-09 00:25N 37°31' W 122°12'0 0.0
2017-Dec-08 23:52N 37°31' W 122°12'0 0.0
2017-Dec-08 23:28N 37°31' W 122°12'0 0.0
2017-Dec-08 22:58N 37°31' W 122°12'0 0.0
2017-Dec-08 22:28N 37°31' W 122°12'0 0.0
2017-Dec-08 21:55N 37°31' W 122°12'0 0.0
2017-Dec-08 21:28N 37°31' W 122°12'0 0.0
2017-Dec-08 20:58N 37°31' W 122°12'0 0.1
2017-Dec-08 20:25N 37°31' W 122°12'0 0.0
2017-Dec-08 19:58N 37°31' W 122°12'0 0.1
2017-Dec-08 19:19N 37°31' W 122°12'0 0.0
2017-Dec-08 18:55N 37°31' W 122°12'0 0.0
2017-Dec-08 18:19N 37°31' W 122°12'0 0.0
2017-Dec-08 17:55N 37°31' W 122°12'0 0.1
2017-Dec-08 17:28N 37°31' W 122°12'0 0.1
2017-Dec-08 16:49N 37°31' W 122°12'0 0.0
2017-Dec-08 16:25N 37°31' W 122°12'0 0.0
2017-Dec-08 15:43N 37°31' W 122°12'0 0.0
2017-Dec-08 15:25N 37°31' W 122°12'0 0.1
2017-Dec-08 14:52N 37°31' W 122°12'0 0.0
2017-Dec-08 14:25N 37°31' W 122°12'0 0.1
2017-Dec-08 13:55N 37°31' W 122°12'0 0.0
2017-Dec-08 13:25N 37°31' W 122°12'0 0.1
2017-Dec-08 12:55N 37°31' W 122°12'0 0.0
2017-Dec-08 12:25N 37°31' W 122°12'0 0.1
2017-Dec-08 11:43N 37°31' W 122°12'0 0.1
2017-Dec-08 11:13N 37°31' W 122°12'0 0.1
2017-Dec-08 10:49N 37°31' W 122°12'0 0.0
2017-Dec-08 10:25N 37°31' W 122°12'0 0.0
2017-Dec-08 09:52N 37°31' W 122°12'0 0.1
2017-Dec-08 09:25N 37°31' W 122°12'0 0.1
2017-Dec-08 08:52N 37°31' W 122°12'0 0.1
2017-Dec-08 08:07N 37°31' W 122°12'0 0.0
2017-Dec-08 07:55N 37°31' W 122°12'0 0.1
2017-Dec-08 07:28N 37°31' W 122°12'0 0.0
2017-Dec-08 06:49N 37°31' W 122°12'0 0.0
2017-Dec-08 06:28N 37°31' W 122°12'0 0.0
2017-Dec-08 04:19N 37°31' W 122°12'0 0.0
2017-Dec-08 03:37N 37°31' W 122°12'0 0.0
2017-Dec-08 03:01N 37°31' W 122°12'0 0.0
2017-Dec-08 02:37N 37°31' W 122°12'0 0.0
2017-Dec-08 02:25N 37°31' W 122°12'0 0.0
2017-Dec-08 01:37N 37°31' W 122°12'0 0.0
2017-Dec-08 01:19N 37°31' W 122°12'0 0.1
2017-Dec-08 00:55N 37°31' W 122°12'0 0.1
2017-Dec-08 00:25N 37°31' W 122°12'  

Dump ship's entire track history